Terminal Aerodrome Forecast
Issued by NWS Anchorage, AK

Home | Current Version | Previous Version | Text Only | Print | Product List | Glossary On
Versions: 1 2 3 4 5 6 7 8 9 10 11 12 13 14 15 16 17 18 19 20 21 22 23 24 25 26 27 28 29 30 31 32 33 34 35 36 37 38 39 40
000
FTAK31 PANC 201135
TAFANC
TAF
PANC 201135Z 2012/2118 15015G25KT P6SM VCSH SCT045 BKN080
      TEMPO 2013/2015 VRB03KT
     FM201500 VRB03KT P6SM BKN050 OVC090
     FM202000 36007KT 6SM -RA SCT025 OVC035
     FM210600 36012KT 5SM -RA BKN025 OVC035
     FM211500 36008KT P6SM -SHRA SCT025 OVC060=

USA.gov is the U.S. government's official web portal to all federal, state and local government web resources and services.